sensor_id;sensor_type;location;lat;lon;timestamp;P1;durP1;ratioP1;P2;durP2;ratioP2
12088;SDS011;6107;49.078;8.578;2022-09-30T00:02:10;6.67;;;4.10;;
12088;SDS011;6107;49.078;8.578;2022-09-30T00:04:38;5.23;;;4.10;;
12088;SDS011;6107;49.078;8.578;2022-09-30T00:07:04;4.67;;;3.67;;
12088;SDS011;6107;49.078;8.578;2022-09-30T00:09:29;8.13;;;3.87;;
12088;SDS011;6107;49.078;8.578;2022-09-30T00:11:55;5.77;;;4.10;;
12088;SDS011;6107;49.078;8.578;2022-09-30T00:14:21;5.00;;;3.97;;
12088;SDS011;6107;49.078;8.578;2022-09-30T00:16:48;7.30;;;4.17;;
12088;SDS011;6107;49.078;8.578;2022-09-30T00:19:14;5.57;;;3.83;;
12088;SDS011;6107;49.078;8.578;2022-09-30T00:21:40;6.77;;;4.40;;
12088;SDS011;6107;49.078;8.578;2022-09-30T00:24:06;6.13;;;4.53;;
12088;SDS011;6107;49.078;8.578;2022-09-30T00:26:32;5.83;;;4.30;;
12088;SDS011;6107;49.078;8.578;2022-09-30T00:28:58;6.53;;;4.80;;
12088;SDS011;6107;49.078;8.578;2022-09-30T00:31:25;5.73;;;4.57;;
12088;SDS011;6107;49.078;8.578;2022-09-30T00:33:53;9.27;;;4.87;;
12088;SDS011;6107;49.078;8.578;2022-09-30T00:36:34;6.37;;;4.73;;
12088;SDS011;6107;49.078;8.578;2022-09-30T00:39:08;7.40;;;4.60;;
12088;SDS011;6107;49.078;8.578;2022-09-30T00:41:35;6.57;;;4.47;;
12088;SDS011;6107;49.078;8.578;2022-09-30T00:44:01;7.73;;;4.57;;
12088;SDS011;6107;49.078;8.578;2022-09-30T00:46:47;8.00;;;5.00;;
12088;SDS011;6107;49.078;8.578;2022-09-30T00:49:15;7.03;;;4.90;;
12088;SDS011;6107;49.078;8.578;2022-09-30T00:51:46;6.67;;;4.87;;
12088;SDS011;6107;49.078;8.578;2022-09-30T00:54:20;8.17;;;4.50;;
12088;SDS011;6107;49.078;8.578;2022-09-30T00:56:51;6.53;;;5.00;;
12088;SDS011;6107;49.078;8.578;2022-09-30T00:59:23;7.07;;;4.60;;
12088;SDS011;6107;49.078;8.578;2022-09-30T01:01:53;6.57;;;4.60;;
12088;SDS011;6107;49.078;8.578;2022-09-30T01:04:22;7.50;;;4.47;;
12088;SDS011;6107;49.078;8.578;2022-09-30T01:06:49;7.10;;;4.80;;
12088;SDS011;6107;49.078;8.578;2022-09-30T01:09:15;7.07;;;4.47;;
12088;SDS011;6107;49.078;8.578;2022-09-30T01:11:41;6.63;;;4.30;;
12088;SDS011;6107;49.078;8.578;2022-09-30T01:14:09;9.47;;;4.67;;
12088;SDS011;6107;49.078;8.578;2022-09-30T01:19:32;10.43;;;4.70;;
12088;SDS011;6107;49.078;8.578;2022-09-30T01:22:35;7.93;;;4.80;;
12088;SDS011;6107;49.078;8.578;2022-09-30T01:35:36;12.77;;;5.47;;
12088;SDS011;6107;49.078;8.578;2022-09-30T01:38:22;9.33;;;5.73;;
12088;SDS011;6107;49.078;8.578;2022-09-30T01:41:32;11.10;;;5.33;;
12088;SDS011;6107;49.078;8.578;2022-09-30T01:44:32;8.30;;;5.03;;
12088;SDS011;6107;49.078;8.578;2022-09-30T01:47:10;10.03;;;5.27;;
12088;SDS011;6107;49.078;8.578;2022-09-30T01:49:49;8.50;;;4.97;;
12088;SDS011;6107;49.078;8.578;2022-09-30T01:55:00;7.27;;;5.20;;
12088;SDS011;6107;49.078;8.578;2022-09-30T02:00:08;7.20;;;5.17;;
12088;SDS011;6107;49.078;8.578;2022-09-30T02:02:35;10.20;;;5.80;;
12088;SDS011;6107;49.078;8.578;2022-09-30T02:05:13;10.47;;;5.93;;
12088;SDS011;6107;49.078;8.578;2022-09-30T02:07:51;7.43;;;5.67;;
12088;SDS011;6107;49.078;8.578;2022-09-30T02:10:26;10.43;;;5.80;;
12088;SDS011;6107;49.078;8.578;2022-09-30T02:13:00;10.07;;;6.00;;
12088;SDS011;6107;49.078;8.578;2022-09-30T02:15:33;7.13;;;5.67;;
12088;SDS011;6107;49.078;8.578;2022-09-30T02:18:05;11.43;;;5.83;;
12088;SDS011;6107;49.078;8.578;2022-09-30T02:20:38;8.70;;;5.83;;
12088;SDS011;6107;49.078;8.578;2022-09-30T02:23:08;8.00;;;5.30;;
12088;SDS011;6107;49.078;8.578;2022-09-30T02:25:47;9.27;;;6.23;;
12088;SDS011;6107;49.078;8.578;2022-09-30T02:28:19;8.83;;;6.10;;
12088;SDS011;6107;49.078;8.578;2022-09-30T02:30:51;7.80;;;5.40;;
12088;SDS011;6107;49.078;8.578;2022-09-30T02:33:22;8.73;;;5.43;;
12088;SDS011;6107;49.078;8.578;2022-09-30T02:36:23;7.93;;;5.93;;
12088;SDS011;6107;49.078;8.578;2022-09-30T02:38:55;9.03;;;5.87;;
12088;SDS011;6107;49.078;8.578;2022-09-30T02:41:39;8.33;;;5.60;;
12088;SDS011;6107;49.078;8.578;2022-09-30T02:44:09;8.77;;;5.87;;
12088;SDS011;6107;49.078;8.578;2022-09-30T02:49:18;9.70;;;6.07;;
12088;SDS011;6107;49.078;8.578;2022-09-30T02:52:22;15.33;;;7.43;;
12088;SDS011;6107;49.078;8.578;2022-09-30T03:00:20;9.33;;;6.23;;
12088;SDS011;6107;49.078;8.578;2022-09-30T03:02:47;10.93;;;6.63;;
12088;SDS011;6107;49.078;8.578;2022-09-30T03:05:16;9.03;;;5.97;;
12088;SDS011;6107;49.078;8.578;2022-09-30T03:07:42;10.80;;;6.27;;
12088;SDS011;6107;49.078;8.578;2022-09-30T03:10:12;9.77;;;6.57;;
12088;SDS011;6107;49.078;8.578;2022-09-30T03:15:44;11.83;;;7.50;;
12088;SDS011;6107;49.078;8.578;2022-09-30T03:18:38;13.53;;;7.87;;
12088;SDS011;6107;49.078;8.578;2022-09-30T03:34:56;18.13;;;9.70;;
12088;SDS011;6107;49.078;8.578;2022-09-30T03:37:50;18.53;;;10.13;;
12088;SDS011;6107;49.078;8.578;2022-09-30T03:40:25;17.63;;;9.53;;
12088;SDS011;6107;49.078;8.578;2022-09-30T03:43:25;18.13;;;9.50;;
12088;SDS011;6107;49.078;8.578;2022-09-30T03:45:57;16.20;;;9.33;;
12088;SDS011;6107;49.078;8.578;2022-09-30T03:48:39;22.53;;;10.10;;
12088;SDS011;6107;49.078;8.578;2022-09-30T03:51:06;21.53;;;10.27;;
12088;SDS011;6107;49.078;8.578;2022-09-30T03:53:37;20.67;;;11.03;;
12088;SDS011;6107;49.078;8.578;2022-09-30T03:56:04;21.70;;;11.00;;
12088;SDS011;6107;49.078;8.578;2022-09-30T03:58:30;23.67;;;11.40;;
12088;SDS011;6107;49.078;8.578;2022-09-30T04:00:56;21.47;;;10.83;;
12088;SDS011;6107;49.078;8.578;2022-09-30T04:03:22;19.17;;;9.93;;
12088;SDS011;6107;49.078;8.578;2022-09-30T04:05:49;17.57;;;9.30;;
12088;SDS011;6107;49.078;8.578;2022-09-30T04:08:15;18.83;;;10.00;;
12088;SDS011;6107;49.078;8.578;2022-09-30T04:10:40;20.77;;;9.67;;
12088;SDS011;6107;49.078;8.578;2022-09-30T04:13:10;18.50;;;11.93;;
12088;SDS011;6107;49.078;8.578;2022-09-30T04:15:37;18.50;;;11.07;;
12088;SDS011;6107;49.078;8.578;2022-09-30T04:18:03;16.23;;;10.87;;
12088;SDS011;6107;49.078;8.578;2022-09-30T04:20:29;16.23;;;10.13;;
12088;SDS011;6107;49.078;8.578;2022-09-30T04:22:56;15.30;;;10.00;;
12088;SDS011;6107;49.078;8.578;2022-09-30T04:25:22;16.33;;;10.07;;
12088;SDS011;6107;49.078;8.578;2022-09-30T04:27:48;17.63;;;10.23;;
12088;SDS011;6107;49.078;8.578;2022-09-30T04:30:13;16.00;;;10.33;;
12088;SDS011;6107;49.078;8.578;2022-09-30T04:32:41;17.33;;;10.83;;
12088;SDS011;6107;49.078;8.578;2022-09-30T04:35:09;20.63;;;11.10;;
12088;SDS011;6107;49.078;8.578;2022-09-30T04:37:39;17.37;;;10.57;;
12088;SDS011;6107;49.078;8.578;2022-09-30T04:40:08;20.53;;;11.10;;
12088;SDS011;6107;49.078;8.578;2022-09-30T04:42:36;21.17;;;11.40;;
12088;SDS011;6107;49.078;8.578;2022-09-30T04:45:03;16.43;;;10.90;;
12088;SDS011;6107;49.078;8.578;2022-09-30T04:47:29;16.73;;;11.40;;
12088;SDS011;6107;49.078;8.578;2022-09-30T04:49:55;20.57;;;11.10;;
12088;SDS011;6107;49.078;8.578;2022-09-30T04:52:21;20.00;;;11.50;;
12088;SDS011;6107;49.078;8.578;2022-09-30T04:55:06;19.50;;;11.37;;
12088;SDS011;6107;49.078;8.578;2022-09-30T04:57:31;17.60;;;11.10;;
12088;SDS011;6107;49.078;8.578;2022-09-30T04:59:57;18.73;;;11.30;;
12088;SDS011;6107;49.078;8.578;2022-09-30T05:02:23;15.43;;;9.90;;
12088;SDS011;6107;49.078;8.578;2022-09-30T05:04:48;16.03;;;9.87;;
12088;SDS011;6107;49.078;8.578;2022-09-30T05:07:14;23.27;;;15.50;;
12088;SDS011;6107;49.078;8.578;2022-09-30T05:09:40;16.97;;;10.37;;
12088;SDS011;6107;49.078;8.578;2022-09-30T05:12:05;15.13;;;10.43;;
12088;SDS011;6107;49.078;8.578;2022-09-30T05:14:31;15.50;;;9.80;;
12088;SDS011;6107;49.078;8.578;2022-09-30T05:16:58;18.67;;;11.73;;
12088;SDS011;6107;49.078;8.578;2022-09-30T05:19:24;16.70;;;11.23;;
12088;SDS011;6107;49.078;8.578;2022-09-30T05:21:50;16.23;;;10.17;;
12088;SDS011;6107;49.078;8.578;2022-09-30T05:24:16;18.40;;;11.97;;
12088;SDS011;6107;49.078;8.578;2022-09-30T05:26:42;18.00;;;11.77;;
12088;SDS011;6107;49.078;8.578;2022-09-30T05:29:08;18.20;;;11.10;;
12088;SDS011;6107;49.078;8.578;2022-09-30T05:31:34;17.77;;;11.63;;
12088;SDS011;6107;49.078;8.578;2022-09-30T05:33:59;15.93;;;10.27;;
12088;SDS011;6107;49.078;8.578;2022-09-30T05:36:25;14.43;;;9.63;;
12088;SDS011;6107;49.078;8.578;2022-09-30T05:38:51;15.47;;;10.60;;
12088;SDS011;6107;49.078;8.578;2022-09-30T05:41:18;21.30;;;11.67;;
12088;SDS011;6107;49.078;8.578;2022-09-30T05:43:45;16.40;;;11.97;;
12088;SDS011;6107;49.078;8.578;2022-09-30T05:46:11;17.53;;;11.37;;
12088;SDS011;6107;49.078;8.578;2022-09-30T05:48:40;16.20;;;10.13;;
12088;SDS011;6107;49.078;8.578;2022-09-30T05:51:06;15.43;;;10.00;;
12088;SDS011;6107;49.078;8.578;2022-09-30T05:53:32;15.53;;;10.17;;
12088;SDS011;6107;49.078;8.578;2022-09-30T05:56:02;18.47;;;10.67;;
12088;SDS011;6107;49.078;8.578;2022-09-30T05:58:29;16.50;;;10.47;;
12088;SDS011;6107;49.078;8.578;2022-09-30T06:00:55;15.13;;;9.77;;
12088;SDS011;6107;49.078;8.578;2022-09-30T06:03:21;17.43;;;9.67;;
12088;SDS011;6107;49.078;8.578;2022-09-30T06:05:47;16.93;;;10.27;;
12088;SDS011;6107;49.078;8.578;2022-09-30T06:08:13;14.43;;;9.87;;
12088;SDS011;6107;49.078;8.578;2022-09-30T06:10:40;13.23;;;9.60;;
12088;SDS011;6107;49.078;8.578;2022-09-30T06:13:07;15.37;;;9.23;;
12088;SDS011;6107;49.078;8.578;2022-09-30T06:15:32;15.97;;;9.50;;
12088;SDS011;6107;49.078;8.578;2022-09-30T06:18:02;16.57;;;10.07;;
12088;SDS011;6107;49.078;8.578;2022-09-30T06:20:28;17.03;;;10.00;;
12088;SDS011;6107;49.078;8.578;2022-09-30T06:22:54;15.50;;;10.27;;
12088;SDS011;6107;49.078;8.578;2022-09-30T06:25:22;14.93;;;9.87;;
12088;SDS011;6107;49.078;8.578;2022-09-30T06:27:47;13.67;;;9.73;;
12088;SDS011;6107;49.078;8.578;2022-09-30T06:30:14;16.10;;;10.10;;
12088;SDS011;6107;49.078;8.578;2022-09-30T06:32:39;19.93;;;11.03;;
12088;SDS011;6107;49.078;8.578;2022-09-30T06:35:06;16.60;;;10.93;;
12088;SDS011;6107;49.078;8.578;2022-09-30T06:37:32;16.53;;;10.90;;
12088;SDS011;6107;49.078;8.578;2022-09-30T06:40:00;14.70;;;9.80;;
12088;SDS011;6107;49.078;8.578;2022-09-30T06:42:28;9.23;;;7.03;;
12088;SDS011;6107;49.078;8.578;2022-09-30T06:44:54;17.23;;;11.53;;
12088;SDS011;6107;49.078;8.578;2022-09-30T06:47:20;14.60;;;9.80;;
12088;SDS011;6107;49.078;8.578;2022-09-30T06:49:46;15.00;;;10.20;;
12088;SDS011;6107;49.078;8.578;2022-09-30T06:52:11;19.30;;;10.70;;
12088;SDS011;6107;49.078;8.578;2022-09-30T06:54:37;15.20;;;10.10;;
12088;SDS011;6107;49.078;8.578;2022-09-30T06:57:03;16.67;;;10.13;;
12088;SDS011;6107;49.078;8.578;2022-09-30T06:59:29;14.53;;;9.93;;
12088;SDS011;6107;49.078;8.578;2022-09-30T07:01:55;14.93;;;9.53;;
12088;SDS011;6107;49.078;8.578;2022-09-30T07:04:20;13.23;;;9.03;;
12088;SDS011;6107;49.078;8.578;2022-09-30T07:06:46;16.67;;;9.07;;
12088;SDS011;6107;49.078;8.578;2022-09-30T07:09:12;11.90;;;9.23;;
12088;SDS011;6107;49.078;8.578;2022-09-30T07:11:38;13.07;;;8.87;;
12088;SDS011;6107;49.078;8.578;2022-09-30T07:14:04;16.00;;;10.67;;
12088;SDS011;6107;49.078;8.578;2022-09-30T07:16:30;14.70;;;10.30;;
12088;SDS011;6107;49.078;8.578;2022-09-30T07:18:59;11.77;;;9.00;;
12088;SDS011;6107;49.078;8.578;2022-09-30T07:21:25;33.50;;;24.70;;
12088;SDS011;6107;49.078;8.578;2022-09-30T07:23:50;14.57;;;9.97;;
12088;SDS011;6107;49.078;8.578;2022-09-30T07:26:18;13.50;;;9.57;;
12088;SDS011;6107;49.078;8.578;2022-09-30T07:28:45;15.23;;;9.80;;
12088;SDS011;6107;49.078;8.578;2022-09-30T07:31:12;15.13;;;9.53;;
12088;SDS011;6107;49.078;8.578;2022-09-30T07:33:41;14.73;;;9.67;;
12088;SDS011;6107;49.078;8.578;2022-09-30T07:36:08;13.40;;;9.33;;
12088;SDS011;6107;49.078;8.578;2022-09-30T07:38:36;14.33;;;9.70;;
12088;SDS011;6107;49.078;8.578;2022-09-30T07:41:05;17.13;;;10.10;;
12088;SDS011;6107;49.078;8.578;2022-09-30T07:43:38;14.83;;;9.53;;
12088;SDS011;6107;49.078;8.578;2022-09-30T07:46:07;12.87;;;8.87;;
12088;SDS011;6107;49.078;8.578;2022-09-30T07:48:35;17.67;;;11.43;;
12088;SDS011;6107;49.078;8.578;2022-09-30T07:51:19;17.93;;;11.27;;
12088;SDS011;6107;49.078;8.578;2022-09-30T07:53:48;14.50;;;10.37;;
12088;SDS011;6107;49.078;8.578;2022-09-30T07:56:17;17.33;;;11.97;;
12088;SDS011;6107;49.078;8.578;2022-09-30T07:58:43;17.50;;;11.90;;
12088;SDS011;6107;49.078;8.578;2022-09-30T08:01:09;22.50;;;12.60;;
12088;SDS011;6107;49.078;8.578;2022-09-30T08:03:37;16.23;;;11.30;;
12088;SDS011;6107;49.078;8.578;2022-09-30T08:06:09;14.83;;;11.10;;
12088;SDS011;6107;49.078;8.578;2022-09-30T08:08:36;17.13;;;11.33;;
12088;SDS011;6107;49.078;8.578;2022-09-30T08:11:02;15.90;;;10.77;;
12088;SDS011;6107;49.078;8.578;2022-09-30T08:13:29;16.57;;;10.97;;
12088;SDS011;6107;49.078;8.578;2022-09-30T08:15:56;13.67;;;10.77;;
12088;SDS011;6107;49.078;8.578;2022-09-30T08:18:22;16.53;;;11.77;;
12088;SDS011;6107;49.078;8.578;2022-09-30T08:20:48;16.23;;;11.20;;
12088;SDS011;6107;49.078;8.578;2022-09-30T08:23:15;17.13;;;11.93;;
12088;SDS011;6107;49.078;8.578;2022-09-30T08:25:40;18.20;;;11.97;;
12088;SDS011;6107;49.078;8.578;2022-09-30T08:28:06;18.20;;;12.70;;
12088;SDS011;6107;49.078;8.578;2022-09-30T08:30:35;20.77;;;12.93;;
12088;SDS011;6107;49.078;8.578;2022-09-30T08:33:02;19.90;;;12.67;;
12088;SDS011;6107;49.078;8.578;2022-09-30T08:35:28;20.67;;;12.70;;
12088;SDS011;6107;49.078;8.578;2022-09-30T08:37:54;18.40;;;12.77;;
12088;SDS011;6107;49.078;8.578;2022-09-30T08:40:21;16.40;;;11.40;;
12088;SDS011;6107;49.078;8.578;2022-09-30T08:42:54;17.17;;;11.70;;
12088;SDS011;6107;49.078;8.578;2022-09-30T08:48:42;19.87;;;11.90;;
12088;SDS011;6107;49.078;8.578;2022-09-30T08:53:55;18.23;;;12.03;;
12088;SDS011;6107;49.078;8.578;2022-09-30T08:56:25;17.57;;;12.13;;
12088;SDS011;6107;49.078;8.578;2022-09-30T08:58:55;16.93;;;11.90;;
12088;SDS011;6107;49.078;8.578;2022-09-30T09:01:31;20.13;;;12.37;;
12088;SDS011;6107;49.078;8.578;2022-09-30T09:03:59;16.27;;;11.37;;
12088;SDS011;6107;49.078;8.578;2022-09-30T09:06:29;17.03;;;12.27;;
12088;SDS011;6107;49.078;8.578;2022-09-30T09:14:37;17.10;;;12.37;;
12088;SDS011;6107;49.078;8.578;2022-09-30T09:20:07;17.87;;;11.53;;
12088;SDS011;6107;49.078;8.578;2022-09-30T09:22:40;15.57;;;11.20;;
12088;SDS011;6107;49.078;8.578;2022-09-30T09:25:11;15.00;;;10.90;;
12088;SDS011;6107;49.078;8.578;2022-09-30T09:27:44;16.73;;;10.93;;
12088;SDS011;6107;49.078;8.578;2022-09-30T09:30:15;15.87;;;11.20;;
12088;SDS011;6107;49.078;8.578;2022-09-30T09:32:44;15.53;;;11.50;;
12088;SDS011;6107;49.078;8.578;2022-09-30T09:35:35;14.80;;;9.90;;
12088;SDS011;6107;49.078;8.578;2022-09-30T09:46:24;12.90;;;9.50;;
12088;SDS011;6107;49.078;8.578;2022-09-30T09:49:04;13.90;;;9.83;;
12088;SDS011;6107;49.078;8.578;2022-09-30T09:51:47;12.87;;;9.03;;
12088;SDS011;6107;49.078;8.578;2022-09-30T09:54:22;11.80;;;8.97;;
12088;SDS011;6107;49.078;8.578;2022-09-30T09:56:54;12.90;;;9.10;;
12088;SDS011;6107;49.078;8.578;2022-09-30T09:59:20;14.60;;;9.50;;
12088;SDS011;6107;49.078;8.578;2022-09-30T10:01:47;12.50;;;8.10;;
12088;SDS011;6107;49.078;8.578;2022-09-30T10:04:21;11.70;;;8.90;;
12088;SDS011;6107;49.078;8.578;2022-09-30T10:06:53;15.13;;;9.10;;
12088;SDS011;6107;49.078;8.578;2022-09-30T10:09:27;11.93;;;9.43;;
12088;SDS011;6107;49.078;8.578;2022-09-30T10:14:29;14.00;;;8.80;;
12088;SDS011;6107;49.078;8.578;2022-09-30T10:16:57;12.13;;;9.13;;
12088;SDS011;6107;49.078;8.578;2022-09-30T10:19:25;13.53;;;8.70;;
12088;SDS011;6107;49.078;8.578;2022-09-30T10:24:36;10.43;;;8.37;;
12088;SDS011;6107;49.078;8.578;2022-09-30T10:27:02;10.47;;;7.47;;
12088;SDS011;6107;49.078;8.578;2022-09-30T10:29:48;11.50;;;8.20;;
12088;SDS011;6107;49.078;8.578;2022-09-30T10:32:14;10.77;;;7.90;;
12088;SDS011;6107;49.078;8.578;2022-09-30T10:34:39;10.25;;;7.47;;
12088;SDS011;6107;49.078;8.578;2022-09-30T10:37:08;11.50;;;8.07;;
12088;SDS011;6107;49.078;8.578;2022-09-30T10:39:40;7.88;;;6.53;;
12088;SDS011;6107;49.078;8.578;2022-09-30T10:42:18;11.25;;;7.30;;
12088;SDS011;6107;49.078;8.578;2022-09-30T10:44:48;10.80;;;7.18;;
12088;SDS011;6107;49.078;8.578;2022-09-30T10:47:19;9.77;;;7.22;;
12088;SDS011;6107;49.078;8.578;2022-09-30T10:52:30;9.45;;;7.32;;
12088;SDS011;6107;49.078;8.578;2022-09-30T10:54:59;11.15;;;7.35;;
12088;SDS011;6107;49.078;8.578;2022-09-30T10:57:34;9.82;;;7.05;;
12088;SDS011;6107;49.078;8.578;2022-09-30T11:00:12;8.85;;;6.43;;
12088;SDS011;6107;49.078;8.578;2022-09-30T11:05:20;8.70;;;7.28;;
12088;SDS011;6107;49.078;8.578;2022-09-30T11:11:13;9.13;;;6.47;;
12088;SDS011;6107;49.078;8.578;2022-09-30T11:14:06;8.50;;;6.20;;
12088;SDS011;6107;49.078;8.578;2022-09-30T11:17:02;11.10;;;7.18;;
12088;SDS011;6107;49.078;8.578;2022-09-30T11:19:45;8.27;;;6.45;;
12088;SDS011;6107;49.078;8.578;2022-09-30T11:22:34;10.73;;;6.95;;
12088;SDS011;6107;49.078;8.578;2022-09-30T11:25:07;8.30;;;6.78;;
12088;SDS011;6107;49.078;8.578;2022-09-30T11:27:51;9.13;;;6.82;;
12088;SDS011;6107;49.078;8.578;2022-09-30T11:30:24;7.00;;;5.82;;
12088;SDS011;6107;49.078;8.578;2022-09-30T11:38:38;9.23;;;6.00;;
12088;SDS011;6107;49.078;8.578;2022-09-30T11:41:12;8.70;;;6.03;;
12088;SDS011;6107;49.078;8.578;2022-09-30T11:50:41;10.45;;;6.47;;
12088;SDS011;6107;49.078;8.578;2022-09-30T11:58:22;10.20;;;6.72;;
12088;SDS011;6107;49.078;8.578;2022-09-30T12:00:54;8.65;;;6.40;;
12088;SDS011;6107;49.078;8.578;2022-09-30T12:03:24;8.50;;;6.18;;
12088;SDS011;6107;49.078;8.578;2022-09-30T12:06:20;9.18;;;6.10;;
12088;SDS011;6107;49.078;8.578;2022-09-30T12:08:54;8.63;;;5.95;;
12088;SDS011;6107;49.078;8.578;2022-09-30T12:11:32;8.60;;;5.32;;
12088;SDS011;6107;49.078;8.578;2022-09-30T12:14:06;11.52;;;6.57;;
12088;SDS011;6107;49.078;8.578;2022-09-30T12:16:38;8.93;;;6.28;;
12088;SDS011;6107;49.078;8.578;2022-09-30T12:19:13;7.00;;;5.50;;
12088;SDS011;6107;49.078;8.578;2022-09-30T12:22:00;6.78;;;5.10;;
12088;SDS011;6107;49.078;8.578;2022-09-30T12:24:38;6.90;;;4.63;;
12088;SDS011;6107;49.078;8.578;2022-09-30T12:27:23;6.75;;;4.45;;
12088;SDS011;6107;49.078;8.578;2022-09-30T12:30:22;5.50;;;3.97;;
12088;SDS011;6107;49.078;8.578;2022-09-30T12:38:33;6.32;;;4.80;;
12088;SDS011;6107;49.078;8.578;2022-09-30T12:41:25;6.03;;;3.47;;
12088;SDS011;6107;49.078;8.578;2022-09-30T12:44:08;6.43;;;4.07;;
12088;SDS011;6107;49.078;8.578;2022-09-30T12:49:53;5.30;;;4.00;;
12088;SDS011;6107;49.078;8.578;2022-09-30T12:52:22;7.47;;;3.78;;
12088;SDS011;6107;49.078;8.578;2022-09-30T12:54:51;4.60;;;3.65;;
12088;SDS011;6107;49.078;8.578;2022-09-30T12:57:25;5.90;;;3.92;;
12088;SDS011;6107;49.078;8.578;2022-09-30T13:00:02;7.03;;;3.50;;
12088;SDS011;6107;49.078;8.578;2022-09-30T13:02:42;6.63;;;3.40;;
12088;SDS011;6107;49.078;8.578;2022-09-30T13:10:30;6.05;;;4.22;;
12088;SDS011;6107;49.078;8.578;2022-09-30T13:20:48;7.75;;;4.80;;
12088;SDS011;6107;49.078;8.578;2022-09-30T13:23:39;4.93;;;4.03;;
12088;SDS011;6107;49.078;8.578;2022-09-30T13:31:29;5.60;;;3.47;;
12088;SDS011;6107;49.078;8.578;2022-09-30T13:36:28;3.95;;;2.83;;
12088;SDS011;6107;49.078;8.578;2022-09-30T13:42:06;3.65;;;3.28;;
12088;SDS011;6107;49.078;8.578;2022-09-30T13:44:53;4.95;;;3.20;;
12088;SDS011;6107;49.078;8.578;2022-09-30T13:47:28;4.18;;;3.15;;
12088;SDS011;6107;49.078;8.578;2022-09-30T13:49:59;5.60;;;3.10;;
12088;SDS011;6107;49.078;8.578;2022-09-30T13:52:36;8.95;;;3.47;;
12088;SDS011;6107;49.078;8.578;2022-09-30T13:55:07;5.00;;;3.50;;
12088;SDS011;6107;49.078;8.578;2022-09-30T14:00:32;5.38;;;3.30;;
12088;SDS011;6107;49.078;8.578;2022-09-30T14:06:12;5.53;;;2.38;;
12088;SDS011;6107;49.078;8.578;2022-09-30T14:11:40;3.17;;;2.70;;
12088;SDS011;6107;49.078;8.578;2022-09-30T14:17:40;4.43;;;2.80;;
12088;SDS011;6107;49.078;8.578;2022-09-30T14:23:11;4.78;;;3.15;;
12088;SDS011;6107;49.078;8.578;2022-09-30T14:25:39;4.88;;;2.63;;
12088;SDS011;6107;49.078;8.578;2022-09-30T14:28:16;4.45;;;2.47;;
12088;SDS011;6107;49.078;8.578;2022-09-30T14:30:59;5.97;;;2.65;;
12088;SDS011;6107;49.078;8.578;2022-09-30T14:33:32;5.47;;;3.10;;
12088;SDS011;6107;49.078;8.578;2022-09-30T14:36:02;6.32;;;2.42;;
12088;SDS011;6107;49.078;8.578;2022-09-30T14:38:35;4.40;;;2.35;;
12088;SDS011;6107;49.078;8.578;2022-09-30T14:41:03;5.93;;;2.22;;
12088;SDS011;6107;49.078;8.578;2022-09-30T14:43:39;7.18;;;2.25;;
12088;SDS011;6107;49.078;8.578;2022-09-30T14:46:09;5.90;;;2.35;;
12088;SDS011;6107;49.078;8.578;2022-09-30T14:48:41;6.72;;;2.10;;
12088;SDS011;6107;49.078;8.578;2022-09-30T14:51:09;3.20;;;2.50;;
12088;SDS011;6107;49.078;8.578;2022-09-30T14:53:38;5.15;;;2.25;;
12088;SDS011;6107;49.078;8.578;2022-09-30T14:56:28;6.72;;;2.50;;
12088;SDS011;6107;49.078;8.578;2022-09-30T14:58:55;4.90;;;2.50;;
12088;SDS011;6107;49.078;8.578;2022-09-30T15:01:23;6.60;;;2.70;;
12088;SDS011;6107;49.078;8.578;2022-09-30T15:03:55;3.55;;;2.42;;
12088;SDS011;6107;49.078;8.578;2022-09-30T15:06:32;4.28;;;2.58;;
12088;SDS011;6107;49.078;8.578;2022-09-30T15:09:02;4.85;;;2.20;;
12088;SDS011;6107;49.078;8.578;2022-09-30T15:11:32;4.82;;;2.03;;
12088;SDS011;6107;49.078;8.578;2022-09-30T15:14:02;4.38;;;2.17;;
12088;SDS011;6107;49.078;8.578;2022-09-30T15:16:43;3.13;;;2.28;;
12088;SDS011;6107;49.078;8.578;2022-09-30T15:19:11;3.67;;;2.25;;
12088;SDS011;6107;49.078;8.578;2022-09-30T15:21:43;5.22;;;2.25;;
12088;SDS011;6107;49.078;8.578;2022-09-30T15:24:09;5.78;;;2.40;;
12088;SDS011;6107;49.078;8.578;2022-09-30T15:26:36;5.00;;;2.17;;
12088;SDS011;6107;49.078;8.578;2022-09-30T15:29:02;7.90;;;2.42;;
12088;SDS011;6107;49.078;8.578;2022-09-30T15:31:29;6.00;;;2.55;;
12088;SDS011;6107;49.078;8.578;2022-09-30T15:36:59;4.18;;;2.38;;
12088;SDS011;6107;49.078;8.578;2022-09-30T15:39:34;6.32;;;2.20;;
12088;SDS011;6107;49.078;8.578;2022-09-30T15:42:27;4.20;;;2.50;;
12088;SDS011;6107;49.078;8.578;2022-09-30T15:45:03;4.68;;;2.40;;
12088;SDS011;6107;49.078;8.578;2022-09-30T15:50:38;5.82;;;2.45;;
12088;SDS011;6107;49.078;8.578;2022-09-30T15:53:16;5.07;;;2.20;;
12088;SDS011;6107;49.078;8.578;2022-09-30T15:55:46;5.45;;;2.33;;
12088;SDS011;6107;49.078;8.578;2022-09-30T16:00:50;5.65;;;2.60;;
12088;SDS011;6107;49.078;8.578;2022-09-30T16:05:43;8.48;;;3.90;;
12088;SDS011;6107;49.078;8.578;2022-09-30T16:08:11;8.70;;;3.38;;
12088;SDS011;6107;49.078;8.578;2022-09-30T16:10:39;6.85;;;2.75;;
12088;SDS011;6107;49.078;8.578;2022-09-30T16:13:04;2.35;;;2.08;;
12088;SDS011;6107;49.078;8.578;2022-09-30T16:15:34;5.82;;;2.40;;
12088;SDS011;6107;49.078;8.578;2022-09-30T16:18:03;5.75;;;2.60;;
12088;SDS011;6107;49.078;8.578;2022-09-30T16:20:29;5.65;;;2.67;;
12088;SDS011;6107;49.078;8.578;2022-09-30T16:22:55;7.43;;;2.45;;
12088;SDS011;6107;49.078;8.578;2022-09-30T16:25:27;9.82;;;2.58;;
12088;SDS011;6107;49.078;8.578;2022-09-30T16:27:57;6.03;;;2.50;;
12088;SDS011;6107;49.078;8.578;2022-09-30T16:30:45;7.50;;;2.73;;
12088;SDS011;6107;49.078;8.578;2022-09-30T16:33:13;4.63;;;2.43;;
12088;SDS011;6107;49.078;8.578;2022-09-30T16:35:40;6.47;;;2.50;;
12088;SDS011;6107;49.078;8.578;2022-09-30T16:38:09;4.27;;;2.53;;
12088;SDS011;6107;49.078;8.578;2022-09-30T16:40:37;7.63;;;2.67;;
12088;SDS011;6107;49.078;8.578;2022-09-30T16:43:04;5.93;;;2.40;;
12088;SDS011;6107;49.078;8.578;2022-09-30T16:45:30;5.83;;;2.80;;
12088;SDS011;6107;49.078;8.578;2022-09-30T16:47:56;3.87;;;2.63;;
12088;SDS011;6107;49.078;8.578;2022-09-30T16:53:08;3.30;;;2.57;;
12088;SDS011;6107;49.078;8.578;2022-09-30T16:55:34;6.40;;;2.63;;
12088;SDS011;6107;49.078;8.578;2022-09-30T16:58:00;4.67;;;2.60;;
12088;SDS011;6107;49.078;8.578;2022-09-30T17:00:27;8.77;;;2.97;;
12088;SDS011;6107;49.078;8.578;2022-09-30T17:02:53;5.93;;;2.80;;
12088;SDS011;6107;49.078;8.578;2022-09-30T17:05:20;4.13;;;2.67;;
12088;SDS011;6107;49.078;8.578;2022-09-30T17:07:51;4.60;;;2.80;;
12088;SDS011;6107;49.078;8.578;2022-09-30T17:10:20;4.77;;;2.83;;
12088;SDS011;6107;49.078;8.578;2022-09-30T17:12:52;6.33;;;3.23;;
12088;SDS011;6107;49.078;8.578;2022-09-30T17:15:19;5.13;;;2.93;;
12088;SDS011;6107;49.078;8.578;2022-09-30T17:17:46;6.83;;;3.10;;
12088;SDS011;6107;49.078;8.578;2022-09-30T17:20:11;6.93;;;2.87;;
12088;SDS011;6107;49.078;8.578;2022-09-30T17:22:37;8.47;;;2.87;;
12088;SDS011;6107;49.078;8.578;2022-09-30T17:25:03;7.63;;;3.53;;
12088;SDS011;6107;49.078;8.578;2022-09-30T17:27:29;8.97;;;3.07;;
12088;SDS011;6107;49.078;8.578;2022-09-30T17:29:55;6.00;;;2.97;;
12088;SDS011;6107;49.078;8.578;2022-09-30T17:32:20;6.40;;;3.10;;
12088;SDS011;6107;49.078;8.578;2022-09-30T17:34:46;14.80;;;9.63;;
12088;SDS011;6107;49.078;8.578;2022-09-30T17:37:11;6.27;;;4.70;;
12088;SDS011;6107;49.078;8.578;2022-09-30T17:39:38;14.87;;;13.00;;
12088;SDS011;6107;49.078;8.578;2022-09-30T17:42:04;6.07;;;3.90;;
12088;SDS011;6107;49.078;8.578;2022-09-30T17:44:48;6.27;;;3.97;;
12088;SDS011;6107;49.078;8.578;2022-09-30T17:47:15;5.23;;;3.50;;
12088;SDS011;6107;49.078;8.578;2022-09-30T17:49:40;7.87;;;3.63;;
12088;SDS011;6107;49.078;8.578;2022-09-30T17:52:06;10.03;;;3.23;;
12088;SDS011;6107;49.078;8.578;2022-09-30T17:54:31;7.47;;;3.33;;